Chesterfield, MO

1:36 AM CST on February 27, 2015 (GMT -0600)
Spirit Of Saint Louis | Change Station
CLOSE
Current Station
Airport
Location: Spirit of St Louis,
Elevation: 463 ft
Nearby Weather Stations

Elev 463 ft 38.66 °N, 90.66 °W | Updated 42 minutes ago

Clear
Clear
8 °F
Feels Like -8 °F
N
13
Wind Variable Wind from NNW

Today
High -- | Low -- °F
--% Chance of Precip.
Yesterday
High -- | Low -- °F
Precip. -- in
6:37 AM 5:53 PM
Waxing Gibbous, 66% visible
Pressure 30.61 in
Visibility 10.0 miles
Clouds Clear
Windchill -8 °F
Dew Point -3 °F
Humidity 61%
Rainfall 0.00 in
Snow Depth Not available.
UV 0 out of 12
Pollen .60 out of 12
Air Quality Not available.
Flu Activity Not available.
METAR KSUS 270654Z AUTO 34011KT 10SM CLR M13/M19 A3056 RMK AO2 SLP364 T11331194

More Conditions Fewer Conditions

Pressure 30.61 in
Visibility 10.0 miles
Clouds Clear
Windchill -8 °F
Dew Point -3 °F
Humidity 61%
Rainfall 0.00 in
Snow Depth Not available.
UV 0 out of 12
Pollen .60 out of 12
Air Quality Not available.
Flu Activity Not available.
METAR KSUS 270654Z AUTO 34011KT 10SM CLR M13/M19 A3056 RMK AO2 SLP364 T11331194

More Conditions Fewer Conditions

10-Day Weather Forecast

Almanac

Astronomy

Feb. 27, 2015 Rise Set
Actual Time
Civil Twilight
Nautical Twilight
Astronomical Twilight
Moon
Length of Visible Light
Length of Day
Tomorrow will be .
, % of the Moon is Illuminated

Today's Extremes

State Highs State Lows

Community

WunderPhotos

Upload Photos

1,800,646 photos uploaded!

WunderBlogs® & News

Nearby

Air Quality

  Air Quality AQ Index Pollutant
Not available.

Snow Depth

Station Depth Elevation

Earthquake Activity

City Distance Mag. Time & Date
Minimum magnitude displayed is 2.5.

Coastal Water Temperatures

Place Temperature

Nearby Weather Stations